Time;durP1;ratioP1;P1;durP2;ratioP2;P2;SDS_P1;SDS_P2;PMS_P1;PMS_P2;Temp;Humidity;BMP_temperature;BMP_pressure;BME280_temperature;BME280_humidity;BME280_pressure;Samples;Min_cycle;Max_cycle;Signal;HPM_P1;HPM_P2
2022/06/06 00:01:49;;;;;;;0.43;0.43;;;12.20;99.90;;;;;;5135522;27;20627;-76
2022/06/06 00:04:15;;;;;;;1.20;0.88;;;12.10;99.90;;;;;;5117382;27;20205;-75
2022/06/06 00:06:42;;;;;;;0.50;0.50;;;12.10;99.90;;;;;;5118277;27;20246;-74
2022/06/06 00:09:09;;;;;;;0.60;0.60;;;12.10;99.90;;;;;;5117349;27;20267;-74
2022/06/06 00:11:36;;;;;;;0.93;0.60;;;12.00;99.90;;;;;;5136022;27;20277;-75
2022/06/06 00:14:03;;;;;;;0.50;0.50;;;12.00;99.90;;;;;;5155811;27;20194;-76
2022/06/06 00:16:29;;;;;;;0.60;0.60;;;12.00;99.90;;;;;;5138052;27;20243;-76
2022/06/06 00:18:58;;;;;;;0.40;0.40;;;12.00;99.90;;;;;;5156439;27;20187;-75
2022/06/06 00:21:24;;;;;;;0.55;0.55;;;12.00;99.90;;;;;;5137683;27;20247;-74
2022/06/06 00:23:50;;;;;;;0.60;0.60;;;12.10;99.90;;;;;;5138029;27;20668;-75
2022/06/06 00:26:17;;;;;;;0.50;0.50;;;12.10;99.90;;;;;;5137572;27;20206;-75
2022/06/06 00:28:44;;;;;;;0.50;0.50;;;12.20;99.90;;;;;;5155600;27;20190;-74
2022/06/06 00:36:41;;;;;;;0.50;0.50;;;12.30;99.90;;;;;;5156616;27;20197;-75
2022/06/06 00:39:10;;;;;;;0.50;0.50;;;12.30;99.90;;;;;;5156487;27;20186;-74
2022/06/06 00:41:41;;;;;;;0.98;0.98;;;12.30;99.90;;;;;;5137324;27;20202;-75
2022/06/06 00:44:14;;;;;;;0.40;0.40;;;12.20;99.90;;;;;;5156579;27;20186;-75
2022/06/06 00:46:44;;;;;;;1.02;0.90;;;12.20;99.90;;;;;;5137809;27;20215;-77
2022/06/06 00:49:16;;;;;;;0.98;0.70;;;12.20;99.90;;;;;;5156218;27;20229;-76
2022/06/06 00:51:42;;;;;;;0.95;0.95;;;12.20;99.90;;;;;;5155958;27;20196;-76
2022/06/06 00:54:09;;;;;;;0.60;0.60;;;12.20;99.90;;;;;;5155876;27;20648;-75
2022/06/06 00:56:39;;;;;;;0.70;0.70;;;12.20;99.90;;;;;;5137137;27;20198;-76
2022/06/06 00:59:19;;;;;;;0.60;0.60;;;12.10;99.90;;;;;;5136555;27;20242;-75
2022/06/06 01:01:49;;;;;;;0.50;0.50;;;12.10;99.90;;;;;;5155740;27;20707;-75
2022/06/06 01:04:17;;;;;;;0.68;0.68;;;12.00;99.90;;;;;;5156630;27;20180;-73
2022/06/06 01:06:45;;;;;;;0.57;0.57;;;12.00;99.90;;;;;;5155626;27;20186;-71
2022/06/06 01:09:13;;;;;;;0.55;0.55;;;12.00;99.90;;;;;;5137132;27;20276;-73
2022/06/06 01:11:45;;;;;;;0.50;0.50;;;11.90;99.90;;;;;;5156144;27;20205;-75
2022/06/06 01:14:16;;;;;;;0.40;0.40;;;11.90;99.90;;;;;;5156113;27;20202;-75
2022/06/06 01:17:27;;;;;;;0.50;0.50;;;11.80;99.90;;;;;;5137270;27;20201;-75
2022/06/06 01:20:14;;;;;;;0.60;0.60;;;11.80;99.90;;;;;;5092365;28;20226;-75
2022/06/06 01:22:58;;;;;;;0.50;0.50;;;11.70;99.90;;;;;;5074879;28;20258;-74
2022/06/06 01:25:48;;;;;;;0.50;0.50;;;11.60;99.90;;;;;;5091837;28;20196;-74
2022/06/06 01:28:25;;;;;;;0.65;0.65;;;11.50;99.90;;;;;;5091875;28;20218;-74
2022/06/06 01:30:55;;;;;;;0.50;0.50;;;11.40;99.90;;;;;;5091856;28;20195;-74
2022/06/06 01:33:21;;;;;;;0.50;0.50;;;11.40;99.90;;;;;;5090927;28;20559;-76
2022/06/06 01:35:50;;;;;;;0.75;0.75;;;11.40;99.90;;;;;;5091288;28;20188;-75
2022/06/06 01:38:19;;;;;;;0.77;0.77;;;11.30;99.90;;;;;;5091142;28;20200;-75
2022/06/06 01:40:50;;;;;;;0.80;0.80;;;11.30;99.90;;;;;;5094840;28;20270;-76
2022/06/06 01:43:25;;;;;;;1.02;1.02;;;11.20;99.90;;;;;;5096222;28;20188;-76
2022/06/06 01:45:53;;;;;;;0.50;0.50;;;11.00;99.90;;;;;;5078760;28;20257;-75
2022/06/06 01:48:29;;;;;;;0.60;0.60;;;10.90;99.90;;;;;;5095418;28;20286;-75
2022/06/06 01:50:55;;;;;;;0.50;0.50;;;10.80;99.90;;;;;;5075501;28;20315;-75
2022/06/06 01:53:23;;;;;;;0.50;0.50;;;10.70;99.90;;;;;;5088119;28;20207;-77
2022/06/06 01:55:51;;;;;;;0.57;0.57;;;10.70;99.90;;;;;;5118263;28;20213;-76
2022/06/06 01:58:21;;;;;;;0.60;0.60;;;10.70;99.90;;;;;;5117157;28;20255;-75
2022/06/06 02:00:48;;;;;;;0.50;0.50;;;10.70;99.90;;;;;;5122342;27;20293;-72
2022/06/06 02:03:14;;;;;;;0.60;0.60;;;10.70;99.90;;;;;;5138197;27;20661;-76
2022/06/06 02:05:41;;;;;;;0.60;0.60;;;10.60;99.90;;;;;;5138000;27;20194;-73
2022/06/06 02:08:08;;;;;;;0.52;0.52;;;10.60;99.90;;;;;;5136804;27;20198;-74
2022/06/06 02:10:34;;;;;;;0.50;0.50;;;10.60;99.90;;;;;;5138464;27;20282;-75
2022/06/06 02:13:00;;;;;;;0.50;0.50;;;10.50;99.90;;;;;;5136791;27;20194;-75
2022/06/06 02:15:27;;;;;;;0.52;0.52;;;10.50;99.90;;;;;;5136256;27;20206;-74
2022/06/06 02:17:57;;;;;;;0.70;0.70;;;10.50;99.90;;;;;;5136720;27;20229;-74
2022/06/06 02:20:29;;;;;;;0.70;0.70;;;10.50;99.90;;;;;;5136213;27;20706;-73
2022/06/06 02:22:55;;;;;;;1.23;0.90;;;10.50;99.90;;;;;;5136542;27;20282;-74
2022/06/06 02:25:21;;;;;;;0.60;0.60;;;10.60;99.90;;;;;;5136794;27;20568;-74
2022/06/06 02:27:47;;;;;;;0.60;0.60;;;10.50;99.90;;;;;;5136609;27;20198;-75
2022/06/06 02:30:17;;;;;;;0.70;0.70;;;10.50;99.90;;;;;;5137790;27;20604;-73
2022/06/06 02:32:43;;;;;;;0.75;0.75;;;10.50;99.90;;;;;;5138052;27;20733;-75
2022/06/06 02:35:11;;;;;;;0.60;0.60;;;10.60;99.90;;;;;;5136793;27;20191;-76
2022/06/06 02:37:37;;;;;;;0.63;0.63;;;10.60;99.90;;;;;;5136768;27;20603;-75
2022/06/06 02:40:07;;;;;;;0.57;0.57;;;10.60;99.90;;;;;;5138176;27;20195;-76
2022/06/06 02:42:32;;;;;;;0.60;0.60;;;10.70;99.90;;;;;;5135084;27;20199;-74
2022/06/06 02:44:58;;;;;;;0.65;0.65;;;10.70;99.90;;;;;;5135824;27;20331;-76
2022/06/06 02:47:27;;;;;;;0.60;0.60;;;10.70;99.90;;;;;;5135966;27;20273;-76
2022/06/06 02:49:52;;;;;;;0.60;0.60;;;10.90;99.90;;;;;;5136129;27;20231;-75
2022/06/06 02:52:18;;;;;;;0.60;0.60;;;11.00;99.90;;;;;;5134879;27;20206;-75
2022/06/06 02:54:44;;;;;;;0.52;0.52;;;11.10;99.90;;;;;;5137149;27;20195;-75
2022/06/06 02:57:09;;;;;;;0.50;0.50;;;11.10;99.90;;;;;;5135437;27;20206;-75
2022/06/06 02:59:37;;;;;;;0.57;0.57;;;11.10;99.90;;;;;;5135882;27;20263;-75
2022/06/06 03:02:03;;;;;;;4.60;1.20;;;11.20;99.90;;;;;;5132698;27;20550;-74
2022/06/06 03:04:30;;;;;;;0.68;0.68;;;11.20;99.90;;;;;;5136479;27;20202;-75
2022/06/06 03:07:27;;;;;;;0.50;0.50;;;11.30;99.90;;;;;;5137059;27;20273;-75
2022/06/06 03:10:08;;;;;;;0.68;0.68;;;11.30;99.90;;;;;;5137276;27;20281;-74
2022/06/06 03:12:42;;;;;;;0.68;0.68;;;11.30;99.90;;;;;;5137070;27;20445;-74
2022/06/06 03:15:14;;;;;;;0.60;0.60;;;11.40;99.90;;;;;;5132988;27;20208;-75
2022/06/06 03:21:04;;;;;;;0.60;0.60;;;11.50;99.90;;;;;;5115743;28;20210;-75
2022/06/06 03:24:02;;;;;;;0.60;0.60;;;11.60;99.90;;;;;;5115889;28;20187;-75
2022/06/06 03:26:52;;;;;;;0.50;0.50;;;11.60;99.90;;;;;;5116366;28;20727;-75
2022/06/06 03:30:23;;;;;;;0.60;0.60;;;11.70;99.90;;;;;;5116017;28;20275;-75
2022/06/06 03:33:10;;;;;;;2.05;0.98;;;11.80;99.90;;;;;;5038156;28;20289;-74
2022/06/06 03:36:03;;;;;;;0.50;0.50;;;11.90;99.90;;;;;;5055807;28;20189;-73
2022/06/06 03:38:59;;;;;;;0.63;0.63;;;12.00;99.90;;;;;;5073293;28;20193;-73
2022/06/06 03:41:41;;;;;;;0.50;0.50;;;12.00;99.90;;;;;;5055370;28;20213;-75
2022/06/06 03:44:19;;;;;;;0.50;0.50;;;12.10;99.90;;;;;;5073064;28;20246;-75
2022/06/06 03:47:10;;;;;;;0.60;0.60;;;12.20;99.90;;;;;;5072643;28;20215;-76
2022/06/06 03:49:53;;;;;;;0.55;0.55;;;12.30;99.90;;;;;;5073111;28;20640;-74
2022/06/06 03:52:34;;;;;;;0.43;0.43;;;12.40;99.90;;;;;;5072787;28;20203;-75
2022/06/06 03:55:11;;;;;;;0.40;0.40;;;12.40;99.90;;;;;;5073289;28;20724;-74
2022/06/06 03:57:38;;;;;;;0.43;0.43;;;12.50;99.90;;;;;;5072986;28;20216;-74
2022/06/06 04:00:14;;;;;;;0.40;0.40;;;12.50;99.90;;;;;;5056228;28;20591;-75
2022/06/06 04:02:42;;;;;;;0.40;0.40;;;12.50;99.90;;;;;;5072412;28;20200;-76
2022/06/06 04:05:16;;;;;;;0.60;0.60;;;12.60;99.90;;;;;;5073429;28;20336;-75
2022/06/06 04:07:42;;;;;;;0.45;0.45;;;12.70;99.90;;;;;;5115426;28;20188;-75
2022/06/06 04:10:09;;;;;;;0.45;0.45;;;12.70;99.90;;;;;;5114603;28;20210;-76
2022/06/06 04:12:41;;;;;;;0.50;0.50;;;12.70;99.90;;;;;;5110494;28;20204;-74
2022/06/06 04:15:33;;;;;;;0.77;0.77;;;12.80;99.90;;;;;;5094661;28;20188;-75
2022/06/06 04:18:32;;;;;;;0.50;0.50;;;12.80;99.90;;;;;;5093078;28;20239;-75
2022/06/06 04:21:13;;;;;;;0.40;0.40;;;12.80;99.90;;;;;;5094920;28;20208;-75
2022/06/06 04:24:03;;;;;;;0.50;0.50;;;12.80;99.90;;;;;;5093045;28;20195;-75
2022/06/06 04:26:58;;;;;;;0.43;0.43;;;12.90;99.90;;;;;;5099615;28;20248;-76
2022/06/06 04:29:39;;;;;;;0.40;0.40;;;13.00;99.90;;;;;;5114457;28;20202;-75
2022/06/06 04:32:07;;;;;;;0.73;0.73;;;13.10;99.90;;;;;;5115255;28;20253;-75
2022/06/06 04:34:39;;;;;;;0.40;0.40;;;13.20;99.90;;;;;;5115180;28;20227;-75
2022/06/06 04:37:23;;;;;;;0.50;0.50;;;13.30;99.90;;;;;;5114974;28;20274;-76
2022/06/06 04:39:58;;;;;;;0.73;0.60;;;13.40;99.90;;;;;;5093117;28;20682;-75
2022/06/06 04:42:59;;;;;;;0.50;0.50;;;13.40;99.90;;;;;;5092647;28;20669;-76
2022/06/06 04:46:13;;;;;;;0.50;0.50;;;13.50;99.90;;;;;;5092994;28;20265;-74
2022/06/06 04:48:40;;;;;;;0.40;0.40;;;13.70;99.90;;;;;;5072388;28;20200;-74
2022/06/06 04:51:07;;;;;;;0.95;0.60;;;13.70;99.90;;;;;;5121873;27;20218;-74
2022/06/06 04:53:39;;;;;;;0.40;0.40;;;13.80;99.90;;;;;;5129680;27;20689;-74
2022/06/06 04:56:07;;;;;;;0.40;0.40;;;13.80;99.90;;;;;;5113330;28;20210;-75
2022/06/06 04:58:35;;;;;;;0.52;0.52;;;13.90;99.90;;;;;;5114014;28;20213;-75
2022/06/06 05:01:03;;;;;;;0.40;0.40;;;13.90;99.90;;;;;;5114255;28;20574;-75
2022/06/06 05:03:28;;;;;;;0.40;0.40;;;14.00;99.90;;;;;;5112887;28;20685;-74
2022/06/06 05:06:38;;;;;;;0.40;0.40;;;14.00;99.90;;;;;;5113294;28;20196;-74
2022/06/06 05:09:22;;;;;;;0.50;0.50;;;14.10;99.90;;;;;;5112914;28;20194;-74
2022/06/06 05:12:17;;;;;;;0.50;0.50;;;14.20;99.90;;;;;;5112770;28;20252;-76
2022/06/06 05:15:04;;;;;;;0.60;0.60;;;14.30;99.90;;;;;;5086474;28;20646;-75
2022/06/06 05:17:59;;;;;;;0.43;0.43;;;14.40;99.90;;;;;;5113313;28;20650;-74
2022/06/06 05:21:03;;;;;;;0.40;0.40;;;14.50;99.90;;;;;;5111931;28;20187;-76
2022/06/06 05:23:36;;;;;;;0.50;0.50;;;14.70;99.90;;;;;;5104971;28;20206;-75
2022/06/06 05:26:39;;;;;;;0.63;0.63;;;14.80;99.90;;;;;;5112798;28;20191;-74
2022/06/06 05:29:29;;;;;;;0.50;0.50;;;15.00;99.90;;;;;;5113644;28;20187;-74
2022/06/06 05:32:13;;;;;;;0.65;0.65;;;15.00;99.90;;;;;;5114083;28;20183;-75
2022/06/06 05:34:45;;;;;;;0.40;0.40;;;15.00;99.90;;;;;;5104333;28;20674;-75
2022/06/06 05:37:17;;;;;;;0.85;0.63;;;15.00;99.90;;;;;;5093988;28;20555;-75
2022/06/06 05:40:16;;;;;;;0.40;0.40;;;15.20;99.90;;;;;;5092365;28;20203;-74
2022/06/06 05:42:45;;;;;;;0.40;0.40;;;15.30;99.90;;;;;;5108583;28;20245;-74
2022/06/06 05:45:32;;;;;;;0.40;0.40;;;15.40;99.90;;;;;;5114439;28;20200;-74
2022/06/06 05:48:22;;;;;;;0.40;0.40;;;15.50;99.90;;;;;;5114875;28;20539;-77
2022/06/06 05:51:10;;;;;;;0.60;0.60;;;15.50;99.90;;;;;;5126109;28;20226;-75
2022/06/06 05:53:42;;;;;;;0.40;0.40;;;15.60;99.90;;;;;;5134717;27;20202;-75
2022/06/06 05:56:13;;;;;;;2.47;0.93;;;15.60;99.90;;;;;;5134798;28;20195;-75
2022/06/06 05:59:00;;;;;;;0.30;0.30;;;15.50;99.90;;;;;;5133670;28;20631;-76
2022/06/06 06:01:34;;;;;;;0.38;0.38;;;15.60;99.90;;;;;;5132958;28;20207;-76
2022/06/06 06:04:30;;;;;;;0.50;0.50;;;15.80;99.90;;;;;;5133357;28;20202;-76
2022/06/06 06:07:21;;;;;;;0.30;0.30;;;16.10;99.90;;;;;;5134325;27;20330;-76
2022/06/06 06:10:19;;;;;;;0.32;0.32;;;16.50;99.90;;;;;;5133064;28;20197;-76
2022/06/06 06:12:51;;;;;;;0.57;0.57;;;16.90;99.90;;;;;;5134049;27;20198;-76
2022/06/06 06:15:38;;;;;;;0.38;0.38;;;17.20;99.90;;;;;;5133339;27;20239;-76
2022/06/06 06:18:09;;;;;;;0.30;0.30;;;17.00;99.90;;;;;;5133989;27;20653;-75
2022/06/06 06:20:42;;;;;;;0.40;0.40;;;16.90;99.90;;;;;;5133367;28;20203;-76
2022/06/06 06:23:14;;;;;;;0.30;0.30;;;16.80;99.90;;;;;;5131915;28;20222;-76
2022/06/06 06:25:41;;;;;;;0.30;0.30;;;16.70;99.90;;;;;;5133715;27;20195;-76
2022/06/06 06:28:10;;;;;;;0.40;0.40;;;17.00;99.90;;;;;;5137028;27;20202;-79
2022/06/06 06:31:09;;;;;;;0.40;0.40;;;17.60;99.90;;;;;;5128915;27;20558;-76
2022/06/06 06:33:57;;;;;;;0.30;0.30;;;17.50;99.90;;;;;;5115140;28;20667;-77
2022/06/06 06:36:44;;;;;;;0.73;0.68;;;17.60;99.90;;;;;;5115588;28;20207;-78
2022/06/06 06:39:29;;;;;;;0.30;0.30;;;17.70;99.90;;;;;;5132438;27;20179;-77
2022/06/06 06:42:20;;;;;;;0.30;0.30;;;18.00;99.90;;;;;;5137728;27;20202;-78
2022/06/06 06:44:56;;;;;;;0.30;0.30;;;18.60;99.90;;;;;;5136723;27;20249;-78
2022/06/06 06:47:29;;;;;;;0.30;0.30;;;19.00;99.90;;;;;;5137342;27;20664;-77
2022/06/06 06:50:13;;;;;;;0.40;0.40;;;19.00;99.90;;;;;;5124274;27;20223;-75
2022/06/06 06:53:14;;;;;;;0.30;0.30;;;18.60;99.90;;;;;;5116573;28;20199;-77
2022/06/06 06:56:02;;;;;;;1.08;1.00;;;18.30;99.90;;;;;;5117868;28;20192;-77
2022/06/06 06:59:08;;;;;;;0.25;0.25;;;18.30;99.90;;;;;;5107516;28;20788;-77
2022/06/06 07:09:06;;;;;;;0.32;0.32;;;19.10;99.90;;;;;;5095516;28;20273;-77
2022/06/06 07:11:59;;;;;;;0.20;0.20;;;18.60;99.90;;;;;;5095361;28;20238;-79
2022/06/06 07:14:43;;;;;;;0.30;0.30;;;18.90;99.90;;;;;;5077654;28;20207;-76
2022/06/06 07:17:11;;;;;;;0.20;0.20;;;19.20;99.90;;;;;;5094408;28;20305;-76
2022/06/06 07:19:47;;;;;;;0.63;0.45;;;19.40;99.90;;;;;;5060951;28;20204;-75
2022/06/06 07:22:14;;;;;;;0.30;0.30;;;19.70;99.90;;;;;;5075957;28;20219;-75
2022/06/06 07:24:42;;;;;;;0.50;0.50;;;19.80;99.90;;;;;;5075699;28;20654;-76
2022/06/06 07:27:09;;;;;;;0.40;0.40;;;19.90;99.90;;;;;;5076080;28;20223;-75
2022/06/06 07:29:35;;;;;;;0.13;0.13;;;20.10;99.90;;;;;;5092546;28;20239;-75
2022/06/06 07:32:27;;;;;;;0.40;0.40;;;20.10;99.90;;;;;;5092588;28;20281;-76
2022/06/06 07:35:18;;;;;;;0.30;0.30;;;20.10;99.90;;;;;;5092914;28;20638;-76
2022/06/06 07:38:03;;;;;;;0.30;0.30;;;19.80;99.90;;;;;;5092279;28;20254;-75
2022/06/06 07:40:58;;;;;;;0.30;0.30;;;19.90;99.90;;;;;;5054969;28;20208;-75
2022/06/06 07:43:36;;;;;;;0.30;0.30;;;20.30;99.90;;;;;;5120522;27;20198;-75
2022/06/06 07:46:25;;;;;;;0.30;0.30;;;20.80;99.90;;;;;;5134505;27;20218;-75
2022/06/06 07:48:56;;;;;;;0.40;0.40;;;21.10;99.90;;;;;;5136683;27;20213;-75
2022/06/06 07:51:31;;;;;;;0.30;0.30;;;21.00;99.90;;;;;;5137882;27;20201;-75
2022/06/06 07:54:20;;;;;;;0.40;0.40;;;21.00;99.90;;;;;;5156600;27;20276;-75
2022/06/06 07:57:07;;;;;;;0.20;0.20;;;21.10;99.90;;;;;;5156546;27;20551;-75
2022/06/06 07:59:48;;;;;;;0.30;0.30;;;21.40;99.90;;;;;;5137142;27;20209;-77
2022/06/06 08:02:36;;;;;;;0.25;0.25;;;21.40;99.90;;;;;;5137001;27;20218;-76
2022/06/06 08:05:37;;;;;;;0.30;0.30;;;21.80;99.90;;;;;;5137276;27;20681;-77
2022/06/06 08:08:15;;;;;;;0.63;0.32;;;21.70;99.90;;;;;;5134090;27;20585;-77
2022/06/06 08:10:48;;;;;;;0.20;0.20;;;21.90;99.90;;;;;;5140811;27;20269;-76
2022/06/06 08:13:27;;;;;;;0.30;0.30;;;22.20;99.90;;;;;;5176154;27;20209;-75
2022/06/06 08:16:25;;;;;;;0.30;0.30;;;22.20;99.90;;;;;;5158282;27;20197;-76
2022/06/06 08:19:03;;;;;;;0.20;0.20;;;22.00;99.90;;;;;;5158111;27;20719;-76
2022/06/06 08:21:43;;;;;;;0.20;0.20;;;22.30;99.90;;;;;;5176319;27;20204;-76
2022/06/06 08:24:17;;;;;;;0.22;0.22;;;22.50;99.90;;;;;;5125251;27;20199;-77
2022/06/06 08:26:45;;;;;;;0.20;0.20;;;22.80;99.90;;;;;;5134593;27;20193;-75
2022/06/06 08:29:12;;;;;;;0.40;0.40;;;22.80;99.90;;;;;;5116430;27;20195;-76
2022/06/06 08:31:38;;;;;;;0.20;0.20;;;22.40;99.90;;;;;;5134713;27;20653;-76
2022/06/06 08:34:04;;;;;;;0.20;0.20;;;22.80;99.90;;;;;;5134929;27;20190;-76
2022/06/06 08:36:45;;;;;;;0.20;0.20;;;23.00;99.90;;;;;;5134702;27;20195;-75
2022/06/06 08:39:36;;;;;;;0.20;0.20;;;23.50;99.90;;;;;;5134780;27;20237;-76
2022/06/06 08:42:18;;;;;;;0.63;0.60;;;23.80;99.90;;;;;;5134413;27;20202;-75
2022/06/06 08:44:50;;;;;;;0.30;0.30;;;23.90;99.00;;;;;;5134597;27;20237;-75
2022/06/06 08:47:30;;;;;;;0.52;0.52;;;23.60;99.30;;;;;;5131627;27;20675;-74
2022/06/06 08:53:36;;;;;;;0.38;0.38;;;23.50;99.90;;;;;;5155194;27;20293;-75
2022/06/06 08:56:34;;;;;;;16.45;0.73;;;24.10;99.90;;;;;;5155179;27;20648;-75
2022/06/06 08:59:30;;;;;;;0.10;0.10;;;24.20;97.40;;;;;;5154401;27;20206;-75
2022/06/06 09:02:06;;;;;;;0.10;0.10;;;23.40;98.20;;;;;;5154810;27;20258;-78
2022/06/06 09:05:03;;;;;;;0.20;0.20;;;23.50;99.20;;;;;;5154984;27;20204;-74
2022/06/06 09:07:56;;;;;;;0.43;0.30;;;23.90;96.20;;;;;;5154406;27;20182;-75
2022/06/06 09:10:45;;;;;;;0.25;0.25;;;23.50;96.80;;;;;;5155123;27;20201;-75
2022/06/06 09:13:32;;;;;;;0.20;0.20;;;23.30;96.30;;;;;;5155341;27;20235;-75
2022/06/06 09:16:36;;;;;;;0.30;0.30;;;23.80;99.90;;;;;;5154990;27;20265;-74
2022/06/06 09:19:20;;;;;;;0.38;0.38;;;24.40;97.20;;;;;;5154932;27;20277;-75
2022/06/06 09:22:25;;;;;;;0.32;0.20;;;24.60;95.60;;;;;;5136181;27;20202;-75
2022/06/06 09:25:32;;;;;;;0.20;0.20;;;25.10;96.00;;;;;;5155580;27;20239;-73
2022/06/06 09:28:33;;;;;;;0.10;0.10;;;25.10;96.10;;;;;;5137558;27;20579;-74
2022/06/06 09:31:54;;;;;;;1.63;0.88;;;25.50;94.80;;;;;;5136389;27;20198;-74
2022/06/06 09:34:32;;;;;;;0.40;0.40;;;25.30;93.80;;;;;;5086887;27;20301;-74
2022/06/06 09:37:16;;;;;;;0.30;0.30;;;25.60;92.50;;;;;;5136364;27;20220;-73
2022/06/06 09:40:16;;;;;;;0.20;0.20;;;25.60;93.90;;;;;;5136294;27;20220;-74
2022/06/06 09:42:45;;;;;;;0.38;0.35;;;25.30;91.90;;;;;;5142921;27;20687;-74
2022/06/06 09:45:49;;;;;;;0.20;0.20;;;25.70;94.50;;;;;;5154821;27;20201;-73
2022/06/06 09:48:24;;;;;;;0.30;0.30;;;25.90;92.20;;;;;;5154830;27;20688;-73
2022/06/06 09:51:14;;;;;;;0.20;0.20;;;25.60;92.50;;;;;;5154113;27;20698;-73
2022/06/06 10:00:23;;;;;;;0.20;0.20;;;25.60;91.10;;;;;;5155757;27;20201;-72
2022/06/06 10:03:00;;;;;;;0.80;0.30;;;26.00;92.20;;;;;;5158515;27;20280;-71
2022/06/06 10:06:09;;;;;;;0.60;0.43;;;26.10;91.10;;;;;;5139647;27;20598;-72
2022/06/06 10:08:50;;;;;;;5.45;1.60;;;25.90;91.20;;;;;;5139972;27;20201;-72
2022/06/06 10:11:19;;;;;;;0.38;0.30;;;25.70;91.40;;;;;;5158802;27;20299;-72
2022/06/06 10:14:03;;;;;;;0.30;0.30;;;26.20;92.30;;;;;;5139673;27;20678;-71
2022/06/06 10:16:51;;;;;;;0.22;0.20;;;26.20;90.90;;;;;;5158198;27;20202;-72
2022/06/06 10:19:38;;;;;;;0.20;0.20;;;26.80;89.60;;;;;;5158417;27;20191;-73
2022/06/06 10:22:19;;;;;;;0.20;0.20;;;27.00;88.70;;;;;;5139521;27;20217;-73
2022/06/06 10:25:20;;;;;;;0.10;0.10;;;26.60;86.00;;;;;;5158057;27;20182;-73
2022/06/06 10:28:13;;;;;;;0.30;0.30;;;27.00;87.30;;;;;;5158047;27;20190;-73
2022/06/06 10:30:49;;;;;;;0.28;0.28;;;27.30;87.00;;;;;;5157955;27;20656;-75
2022/06/06 10:33:33;;;;;;;0.10;0.10;;;27.40;86.60;;;;;;5158064;27;20188;-73
2022/06/06 10:36:24;;;;;;;0.20;0.20;;;27.00;85.50;;;;;;5139465;27;20530;-74
2022/06/06 10:39:27;;;;;;;0.15;0.15;;;27.10;84.50;;;;;;5138768;27;20242;-74
2022/06/06 10:42:14;;;;;;;0.13;0.13;;;27.40;83.20;;;;;;5139272;27;20240;-72
2022/06/06 10:44:52;;;;;;;0.13;0.13;;;27.10;86.00;;;;;;5157298;27;20276;-74
2022/06/06 10:47:20;;;;;;;0.20;0.20;;;27.30;84.30;;;;;;5157953;27;20186;-73
2022/06/06 10:50:01;;;;;;;0.13;0.13;;;26.70;81.50;;;;;;5145709;27;20684;-74
2022/06/06 10:52:30;;;;;;;0.10;0.10;;;27.20;84.10;;;;;;5136907;27;20201;-72
2022/06/06 10:55:32;;;;;;;0.20;0.20;;;27.20;83.50;;;;;;5136909;27;20680;-72
2022/06/06 10:58:22;;;;;;;0.63;0.40;;;27.60;84.20;;;;;;5137092;27;20209;-72
2022/06/06 11:01:06;;;;;;;0.10;0.10;;;27.90;86.10;;;;;;5146140;27;20690;-72
2022/06/06 11:04:02;;;;;;;0.35;0.20;;;27.80;79.70;;;;;;5157268;27;20238;-72
2022/06/06 11:06:52;;;;;;;0.10;0.10;;;28.50;77.70;;;;;;5157329;27;20679;-72
2022/06/06 11:09:43;;;;;;;0.20;0.20;;;27.30;81.80;;;;;;5157483;27;20182;-72
2022/06/06 11:12:18;;;;;;;0.20;0.20;;;28.00;80.90;;;;;;5156262;27;20247;-72
2022/06/06 11:14:45;;;;;;;0.10;0.10;;;28.40;79.70;;;;;;5138904;27;20248;-73
2022/06/06 11:17:38;;;;;;;0.10;0.10;;;27.90;78.00;;;;;;5157070;27;20197;-72
2022/06/06 11:20:41;;;;;;;0.35;0.35;;;28.50;76.80;;;;;;5157212;27;20607;-72
2022/06/06 11:23:31;;;;;;;0.17;0.17;;;28.70;78.90;;;;;;5156577;27;20698;-73
2022/06/06 11:26:13;;;;;;;0.55;0.45;;;28.90;78.40;;;;;;5157297;27;20201;-73
2022/06/06 11:28:39;;;;;;;0.10;0.10;;;28.30;76.80;;;;;;5138218;27;20292;-75
2022/06/06 11:31:36;;;;;;;0.20;0.20;;;28.50;79.10;;;;;;5137860;27;20744;-73
2022/06/06 11:34:20;;;;;;;0.20;0.20;;;28.60;75.90;;;;;;5156847;27;20193;-73
2022/06/06 11:37:18;;;;;;;0.20;0.20;;;28.80;77.40;;;;;;5157086;27;20557;-73
2022/06/06 11:40:05;;;;;;;0.20;0.20;;;28.90;78.20;;;;;;5156777;27;20201;-72
2022/06/06 11:42:49;;;;;;;0.15;0.15;;;28.90;73.30;;;;;;5137564;27;20198;-72
2022/06/06 11:45:16;;;;;;;0.10;0.10;;;28.60;76.50;;;;;;5155563;27;20694;-73
2022/06/06 11:47:51;;;;;;;0.15;0.15;;;28.60;77.00;;;;;;5155926;27;20188;-72
2022/06/06 11:50:55;;;;;;;0.95;0.65;;;28.50;76.30;;;;;;5137118;27;20254;-74
2022/06/06 11:53:49;;;;;;;0.30;0.28;;;28.40;75.80;;;;;;5155814;27;20181;-71
2022/06/06 11:56:56;;;;;;;0.45;0.25;;;27.90;75.90;;;;;;5136988;27;20795;-73
2022/06/06 11:59:52;;;;;;;1.15;0.50;;;28.50;79.00;;;;;;5155603;27;20185;-74
2022/06/06 12:02:57;;;;;;;0.30;0.17;;;28.30;74.60;;;;;;5155224;27;20297;-73
2022/06/06 12:05:48;;;;;;;1.75;0.47;;;27.80;76.90;;;;;;5105729;27;20193;-74
2022/06/06 12:08:35;;;;;;;0.13;0.13;;;28.20;77.50;;;;;;5136886;27;20260;-74
2022/06/06 12:11:32;;;;;;;0.20;0.20;;;28.00;77.20;;;;;;5136642;27;20209;-75
2022/06/06 12:14:23;;;;;;;0.30;0.30;;;28.30;77.60;;;;;;5155491;27;20717;-75
2022/06/06 12:17:08;;;;;;;0.10;0.10;;;28.60;74.70;;;;;;5137137;27;20210;-73
2022/06/06 12:19:33;;;;;;;0.10;0.10;;;28.50;76.80;;;;;;5134646;27;20288;-74
2022/06/06 12:22:10;;;;;;;0.25;0.25;;;28.10;75.80;;;;;;5134432;27;20289;-72
2022/06/06 12:25:05;;;;;;;0.40;0.32;;;28.30;73.10;;;;;;5134065;27;20555;-72
2022/06/06 12:27:52;;;;;;;0.70;0.40;;;28.50;73.30;;;;;;5134009;27;20622;-72
2022/06/06 12:30:55;;;;;;;0.10;0.10;;;28.60;75.20;;;;;;5134211;27;20653;-72
2022/06/06 12:33:31;;;;;;;0.20;0.20;;;28.60;74.30;;;;;;5134193;27;20194;-75
2022/06/06 12:36:15;;;;;;;1.02;0.65;;;28.10;73.90;;;;;;5134187;27;20201;-75
2022/06/06 12:39:02;;;;;;;0.10;0.10;;;27.90;76.90;;;;;;5128396;27;20209;-73
2022/06/06 12:41:53;;;;;;;0.40;0.40;;;27.50;75.50;;;;;;5135779;27;20205;-75
2022/06/06 12:45:13;;;;;;;0.20;0.20;;;26.60;77.60;;;;;;5154373;27;20269;-73
2022/06/06 12:48:09;;;;;;;0.13;0.13;;;25.80;80.80;;;;;;5122894;27;20229;-73
2022/06/06 12:50:55;;;;;;;0.10;0.10;;;26.00;83.00;;;;;;5131874;27;20226;-74
2022/06/06 12:53:53;;;;;;;3.83;0.50;;;26.40;81.00;;;;;;5133642;27;20245;-73
2022/06/06 12:56:38;;;;;;;0.68;0.57;;;26.10;80.70;;;;;;5133938;27;20190;-74
2022/06/06 12:59:26;;;;;;;0.28;0.28;;;25.70;82.20;;;;;;5132593;27;20815;-74
2022/06/06 13:02:10;;;;;;;0.10;0.10;;;25.30;84.00;;;;;;5133506;27;20681;-74
2022/06/06 13:05:19;;;;;;;0.10;0.10;;;25.80;82.00;;;;;;5132498;27;20267;-73
2022/06/06 13:07:59;;;;;;;0.10;0.10;;;25.60;82.80;;;;;;5131478;27;20199;-75
2022/06/06 13:11:02;;;;;;;0.45;0.30;;;25.90;81.70;;;;;;5131567;27;20565;-73
2022/06/06 13:14:02;;;;;;;0.30;0.30;;;26.00;82.40;;;;;;5133529;27;20285;-74
2022/06/06 13:16:52;;;;;;;0.10;0.10;;;25.50;83.70;;;;;;5132334;28;20195;-74
2022/06/06 13:19:21;;;;;;;0.20;0.20;;;25.30;82.20;;;;;;5133965;27;20190;-74
2022/06/06 13:21:59;;;;;;;0.20;0.20;;;24.60;83.90;;;;;;5133707;27;20213;-73
2022/06/06 13:24:46;;;;;;;0.30;0.30;;;24.70;85.30;;;;;;5133144;27;20532;-74
2022/06/06 13:27:27;;;;;;;0.20;0.20;;;24.30;86.90;;;;;;5133367;27;20599;-74
2022/06/06 13:29:53;;;;;;;0.13;0.13;;;24.20;87.80;;;;;;5133868;27;20187;-77
2022/06/06 13:32:48;;;;;;;0.25;0.25;;;24.00;88.50;;;;;;5133507;27;20198;-73
2022/06/06 13:35:39;;;;;;;0.10;0.10;;;24.10;90.30;;;;;;5126239;27;20271;-74
2022/06/06 13:38:10;;;;;;;0.30;0.30;;;24.70;90.00;;;;;;5136999;27;20202;-73
2022/06/06 13:40:46;;;;;;;0.55;0.43;;;25.10;87.00;;;;;;5137703;27;20193;-72
2022/06/06 13:43:42;;;;;;;0.20;0.20;;;25.10;86.80;;;;;;5136607;27;20192;-74
2022/06/06 13:46:36;;;;;;;0.75;0.40;;;24.90;87.50;;;;;;5137807;27;20213;-74
2022/06/06 13:49:08;;;;;;;2.50;1.05;;;24.70;85.20;;;;;;5136093;27;20602;-75
2022/06/06 13:51:54;;;;;;;0.10;0.10;;;24.50;86.80;;;;;;5135115;27;20222;-76
2022/06/06 13:54:37;;;;;;;0.20;0.20;;;24.30;87.50;;;;;;5136852;27;20281;-75
2022/06/06 13:57:20;;;;;;;0.22;0.22;;;24.50;88.80;;;;;;5136902;27;20657;-75
2022/06/06 13:59:55;;;;;;;5.15;0.73;;;25.30;87.30;;;;;;5138020;27;20223;-77
2022/06/06 14:02:20;;;;;;;0.20;0.20;;;26.10;85.80;;;;;;5137839;27;20209;-76
2022/06/06 14:05:09;;;;;;;0.22;0.22;;;26.30;84.70;;;;;;5138159;27;20187;-76
2022/06/06 14:08:02;;;;;;;0.22;0.22;;;26.90;84.20;;;;;;5136482;27;20193;-74
2022/06/06 14:10:53;;;;;;;0.50;0.35;;;26.70;83.10;;;;;;5137492;27;20205;-75
2022/06/06 14:13:49;;;;;;;0.52;0.50;;;25.90;83.90;;;;;;5138022;27;20191;-75
2022/06/06 14:16:28;;;;;;;1.10;0.60;;;24.90;86.80;;;;;;5137672;27;20653;-74
2022/06/06 14:19:05;;;;;;;0.10;0.10;;;24.70;89.30;;;;;;5136358;27;20282;-73
2022/06/06 14:21:35;;;;;;;0.40;0.40;;;24.90;88.20;;;;;;5137364;27;20202;-71
2022/06/06 14:24:20;;;;;;;0.28;0.28;;;24.90;88.70;;;;;;5136229;27;20216;-74
2022/06/06 14:27:03;;;;;;;0.20;0.20;;;24.70;88.60;;;;;;5137300;27;20253;-73